createdAt,value
2023-03-10T00:00:24.459Z,53.05
2023-03-10T00:01:24.481Z,47.56
2023-03-10T00:02:24.442Z,56.56
2023-03-10T00:03:24.447Z,52.54
2023-03-10T00:04:24.521Z,41.41
2023-03-10T00:05:24.451Z,42.90
2023-03-10T00:06:24.434Z,49.49
2023-03-10T00:07:24.398Z,45.84
2023-03-10T00:08:27.006Z,46.25
2023-03-10T00:09:24.389Z,43.34
2023-03-10T00:10:24.401Z,49.57
2023-03-10T00:11:24.413Z,51.42
2023-03-10T00:12:24.359Z,47.03
2023-03-10T00:13:24.355Z,57.10
2023-03-10T00:14:24.352Z,51.24
2023-03-10T00:15:24.364Z,53.20
2023-03-10T00:16:24.344Z,53.97
2023-03-10T00:17:24.341Z,47.81
2023-03-10T00:18:24.309Z,41.71
2023-03-10T00:19:24.311Z,52.29
2023-03-10T00:20:24.296Z,57.83
2023-03-10T00:21:24.319Z,49.07
2023-03-10T00:22:24.278Z,47.66
2023-03-10T00:23:24.275Z,49.37
2023-03-10T00:24:24.264Z,56.82
2023-03-10T00:25:24.273Z,52.52
2023-03-10T00:26:24.249Z,53.13
2023-03-10T00:27:24.266Z,49.34
2023-03-10T00:28:24.233Z,48.29
2023-03-10T00:29:24.223Z,58.48
2023-03-10T00:30:24.218Z,50.60
2023-03-10T00:31:24.254Z,42.06
2023-03-10T00:32:24.259Z,48.95
2023-03-10T00:33:24.198Z,49.04
2023-03-10T00:34:24.192Z,52.54
2023-03-10T00:35:24.186Z,56.42
2023-03-10T00:36:24.171Z,48.55
2023-03-10T00:37:24.186Z,52.01
2023-03-10T00:38:24.159Z,49.78
2023-03-10T00:39:24.149Z,60.13
2023-03-10T00:40:24.148Z,56.81
2023-03-10T00:41:24.138Z,49.95
2023-03-10T00:42:24.161Z,59.84
2023-03-10T00:43:24.107Z,45.60
2023-03-10T00:44:25.118Z,46.57
2023-03-10T00:45:24.113Z,43.38
2023-03-10T00:46:24.224Z,47.21
2023-03-10T00:47:24.120Z,53.88
2023-03-10T00:48:24.081Z,43.90
2023-03-10T00:49:24.076Z,44.74
2023-03-10T00:50:24.080Z,51.02
2023-03-10T00:51:24.062Z,44.35
2023-03-10T00:52:24.076Z,43.20
2023-03-10T00:53:24.037Z,57.70
2023-03-10T00:54:24.033Z,53.25
2023-03-10T00:55:24.026Z,54.17
2023-03-10T00:56:24.012Z,57.40
2023-03-10T00:57:24.037Z,45.20
2023-03-10T00:58:24.000Z,40.74
2023-03-10T00:59:23.987Z,49.43
2023-03-10T01:00:23.993Z,61.46
2023-03-10T01:01:23.992Z,52.74
2023-03-10T01:02:24.007Z,43.11
2023-03-10T01:03:23.959Z,50.68
2023-03-10T01:04:23.987Z,58.00
2023-03-10T01:05:23.946Z,53.56
2023-03-10T01:06:23.940Z,45.79
2023-03-10T01:07:23.959Z,41.89
2023-03-10T01:08:23.919Z,57.63
2023-03-10T01:09:23.908Z,47.74
2023-03-10T01:10:23.907Z,45.38
2023-03-10T01:11:23.897Z,54.17
2023-03-10T01:12:23.906Z,59.41
2023-03-10T01:13:24.876Z,57.05
2023-03-10T01:14:23.877Z,42.91
2023-03-10T01:15:23.869Z,45.62
2023-03-10T01:16:23.967Z,59.41
2023-03-10T01:17:23.875Z,41.73
2023-03-10T01:18:23.901Z,45.63
2023-03-10T01:19:23.833Z,45.08
2023-03-10T01:20:23.830Z,57.15
2023-03-10T01:21:23.823Z,51.48
2023-03-10T01:22:23.839Z,52.70
2023-03-10T01:23:23.801Z,57.29
2023-03-10T01:24:23.795Z,49.61
2023-03-10T01:25:23.790Z,48.82
2023-03-10T01:26:23.779Z,53.04
2023-03-10T01:27:23.788Z,59.15
2023-03-10T01:28:23.763Z,51.52
2023-03-10T01:29:23.757Z,49.46
2023-03-10T01:30:23.744Z,43.34
2023-03-10T01:31:23.790Z,44.92
2023-03-10T01:32:23.788Z,47.86
2023-03-10T01:33:23.754Z,49.01
2023-03-10T01:34:23.728Z,44.86
2023-03-10T01:35:23.698Z,40.21
2023-03-10T01:36:23.710Z,48.86
2023-03-10T01:37:23.682Z,55.49
2023-03-10T01:38:23.701Z,53.09
2023-03-10T01:39:23.669Z,58.77
2023-03-10T01:40:23.669Z,49.67
2023-03-10T01:41:23.680Z,60.22
2023-03-10T01:42:23.650Z,46.80
2023-03-10T01:43:23.666Z,44.17
2023-03-10T01:44:23.633Z,40.19
2023-03-10T01:45:23.629Z,39.84
2023-03-10T01:46:23.652Z,47.39
2023-03-10T01:47:23.609Z,49.04
2023-03-10T01:48:23.634Z,53.35
2023-03-10T01:49:23.600Z,55.92
2023-03-10T01:50:23.583Z,47.73
2023-03-10T01:51:23.571Z,41.05
2023-03-10T01:52:23.568Z,46.04
2023-03-10T01:53:23.584Z,39.09
2023-03-10T01:54:23.553Z,39.38
2023-03-10T01:55:23.545Z,39.77
2023-03-10T01:56:23.538Z,46.55
2023-03-10T01:57:23.549Z,52.94
2023-03-10T01:58:23.542Z,45.24
2023-03-10T01:59:23.504Z,49.88
2023-03-10T02:00:23.499Z,58.00
2023-03-10T02:01:23.492Z,50.80
2023-03-10T02:02:23.596Z,42.54
2023-03-10T02:03:23.502Z,52.40
2023-03-10T02:04:23.481Z,48.34
2023-03-10T02:05:23.464Z,54.92
2023-03-10T02:06:23.444Z,42.36
2023-03-10T02:07:23.444Z,55.35
2023-03-10T02:08:23.465Z,48.97
2023-03-10T02:09:23.425Z,54.50
2023-03-10T02:10:23.426Z,44.75
2023-03-10T02:11:23.414Z,48.24
2023-03-10T02:12:23.408Z,50.08
2023-03-10T02:13:23.424Z,48.59
2023-03-10T02:14:23.389Z,51.80
2023-03-10T02:15:23.377Z,51.20
2023-03-10T02:16:23.457Z,41.63
2023-03-10T02:17:23.489Z,42.27
2023-03-10T02:18:23.383Z,56.59
2023-03-10T02:19:23.342Z,48.97
2023-03-10T02:20:23.339Z,48.03
2023-03-10T02:21:23.345Z,51.09
2023-03-10T02:22:23.329Z,56.10
2023-03-10T02:23:23.344Z,53.40
2023-03-10T02:24:23.316Z,48.22
2023-03-10T02:25:23.312Z,48.37
2023-03-10T02:26:23.294Z,46.78
2023-03-10T02:27:23.288Z,48.80
2023-03-10T02:28:23.304Z,44.37
2023-03-10T02:29:23.271Z,50.20
2023-03-10T02:30:23.275Z,49.79
2023-03-10T02:31:23.276Z,58.77
2023-03-10T02:32:23.314Z,55.14
2023-03-10T02:33:23.272Z,44.57
2023-03-10T02:34:23.243Z,57.96
2023-03-10T02:35:23.234Z,50.70
2023-03-10T02:36:23.229Z,44.46
2023-03-10T02:37:23.228Z,46.66
2023-03-10T02:38:23.232Z,49.91
2023-03-10T02:39:23.204Z,46.05
2023-03-10T02:40:23.202Z,42.56
2023-03-10T02:41:23.186Z,51.35
2023-03-10T02:42:23.171Z,54.68
2023-03-10T02:43:23.196Z,42.43
2023-03-10T02:44:23.162Z,49.82
2023-03-10T02:45:23.180Z,48.02
2023-03-10T02:46:23.149Z,47.85
2023-03-10T02:47:23.137Z,43.90
2023-03-10T02:48:23.161Z,54.97
2023-03-10T02:49:23.130Z,44.06
2023-03-10T02:50:23.114Z,46.84
2023-03-10T02:51:23.106Z,42.84
2023-03-10T02:52:23.105Z,46.67
2023-03-10T02:53:23.117Z,51.17
2023-03-10T02:54:23.084Z,42.98
2023-03-10T02:55:23.069Z,43.50
2023-03-10T02:56:23.066Z,51.39
2023-03-10T02:57:23.061Z,50.14
2023-03-10T02:58:23.050Z,52.24
2023-03-10T02:59:23.056Z,50.80
2023-03-10T03:00:23.028Z,43.52
2023-03-10T03:01:23.078Z,52.94
2023-03-10T03:02:23.008Z,45.48
2023-03-10T03:03:23.008Z,56.11
2023-03-10T03:04:23.013Z,51.79
2023-03-10T03:05:23.998Z,48.39
2023-03-10T03:06:22.982Z,51.76
2023-03-10T03:07:22.969Z,54.97
2023-03-10T03:08:22.965Z,50.94
2023-03-10T03:09:22.993Z,50.04
2023-03-10T03:10:22.960Z,51.85
2023-03-10T03:11:22.943Z,47.78
2023-03-10T03:12:22.928Z,53.66
2023-03-10T03:13:22.932Z,52.85
2023-03-10T03:14:22.949Z,58.16
2023-03-10T03:15:22.909Z,51.86
2023-03-10T03:16:22.943Z,60.49
2023-03-10T03:17:22.894Z,54.79
2023-03-10T03:18:22.887Z,53.32
2023-03-10T03:19:22.900Z,50.70
2023-03-10T03:20:22.870Z,52.15
2023-03-10T03:21:22.861Z,52.50
2023-03-10T03:22:22.853Z,59.02
2023-03-10T03:23:22.838Z,60.41
2023-03-10T03:24:22.865Z,56.79
2023-03-10T03:25:22.828Z,57.61
2023-03-10T03:26:22.835Z,57.64
2023-03-10T03:27:22.810Z,59.38
2023-03-10T03:28:22.806Z,61.30
2023-03-10T03:29:22.834Z,59.11
2023-03-10T03:30:22.794Z,58.27
2023-03-10T03:31:22.816Z,58.39
2023-03-10T03:32:22.787Z,58.26
2023-03-10T03:33:22.762Z,54.26
2023-03-10T03:34:22.777Z,55.25
2023-03-10T03:35:22.745Z,56.91
2023-03-10T03:36:22.729Z,52.68
2023-03-10T03:37:22.732Z,52.24
2023-03-10T03:38:22.722Z,57.58
2023-03-10T03:39:22.809Z,58.55
2023-03-10T03:40:22.711Z,60.23
2023-03-10T03:41:22.705Z,56.67
2023-03-10T03:42:22.690Z,56.15
2023-03-10T03:43:22.684Z,54.52
2023-03-10T03:44:22.700Z,52.56
2023-03-10T03:45:22.667Z,50.41
2023-03-10T03:46:22.716Z,50.97
2023-03-10T03:47:22.647Z,54.18
2023-03-10T03:48:22.648Z,53.09
2023-03-10T03:49:22.670Z,59.40
2023-03-10T03:50:22.640Z,55.07
2023-03-10T03:51:22.618Z,52.23
2023-03-10T03:52:22.610Z,48.78
2023-03-10T03:53:22.605Z,53.06
2023-03-10T03:54:22.639Z,55.01
2023-03-10T03:55:22.610Z,47.54
2023-03-10T03:56:22.584Z,42.71
2023-03-10T03:57:22.576Z,51.17
2023-03-10T03:58:22.572Z,44.38
2023-03-10T03:59:22.597Z,55.39
2023-03-10T04:00:22.548Z,54.33
2023-03-10T04:01:22.549Z,53.41
2023-03-10T04:02:22.582Z,55.37
2023-03-10T04:03:22.581Z,53.95
2023-03-10T04:04:22.544Z,54.67
2023-03-10T04:05:22.511Z,59.21
2023-03-10T04:06:22.503Z,48.87
2023-03-10T04:07:22.491Z,52.71
2023-03-10T04:08:22.489Z,57.07
2023-03-10T04:09:22.498Z,56.69
2023-03-10T04:10:23.475Z,54.42
2023-03-10T04:11:22.459Z,57.66
2023-03-10T04:12:22.453Z,51.98
2023-03-10T04:13:22.454Z,55.49
2023-03-10T04:14:22.467Z,59.46
2023-03-10T04:15:22.457Z,58.35
2023-03-10T04:16:22.427Z,54.61
2023-03-10T04:17:22.426Z,47.07
2023-03-10T04:18:22.405Z,56.93
2023-03-10T04:19:22.436Z,57.53
2023-03-10T04:20:22.412Z,47.99
2023-03-10T04:21:22.396Z,50.31
2023-03-10T04:22:22.389Z,55.22
2023-03-10T04:23:22.376Z,57.89
2023-03-10T04:24:22.394Z,50.97
2023-03-10T04:25:22.361Z,59.73
2023-03-10T04:26:22.357Z,52.38
2023-03-10T04:27:22.355Z,54.79
2023-03-10T04:28:22.332Z,52.91
2023-03-10T04:29:22.348Z,58.63
2023-03-10T04:30:22.315Z,53.38
2023-03-10T04:31:22.392Z,51.42
2023-03-10T04:32:22.331Z,54.16
2023-03-10T04:33:22.300Z,56.22
2023-03-10T04:34:22.314Z,59.67
2023-03-10T04:35:22.283Z,54.54
2023-03-10T04:36:22.280Z,57.36
2023-03-10T04:37:22.271Z,56.60
2023-03-10T04:38:22.261Z,58.23
2023-03-10T04:39:22.289Z,56.88
2023-03-10T04:40:22.250Z,55.41
2023-03-10T04:41:22.236Z,57.34
2023-03-10T04:42:22.216Z,56.33
2023-03-10T04:43:23.223Z,55.94
2023-03-10T04:44:30.982Z,60.12
2023-03-10T04:45:24.210Z,56.41
2023-03-10T04:46:22.206Z,55.54
2023-03-10T04:47:22.192Z,56.59
2023-03-10T04:48:22.187Z,55.59
2023-03-10T04:49:22.198Z,56.23
2023-03-10T04:50:22.163Z,57.43
2023-03-10T04:51:22.163Z,56.46
2023-03-10T04:52:22.154Z,52.83
2023-03-10T04:53:22.143Z,58.24
2023-03-10T04:54:22.164Z,56.75
2023-03-10T04:55:22.135Z,53.60
2023-03-10T04:56:22.141Z,55.61
2023-03-10T04:57:22.110Z,57.08
2023-03-10T04:58:22.126Z,58.58
2023-03-10T04:59:22.135Z,56.15
2023-03-10T05:00:22.151Z,56.50
2023-03-10T05:01:22.112Z,51.74
2023-03-10T05:02:22.077Z,57.59
2023-03-10T05:03:22.070Z,59.33
2023-03-10T05:04:22.211Z,54.26
2023-03-10T05:05:23.060Z,54.38
2023-03-10T05:06:22.047Z,57.88
2023-03-10T05:07:22.039Z,53.80
2023-03-10T05:08:22.032Z,62.37
2023-03-10T05:09:22.055Z,59.35
2023-03-10T05:10:22.006Z,53.52
2023-03-10T05:11:22.001Z,58.28
2023-03-10T05:12:22.000Z,56.74
2023-03-10T05:13:21.991Z,55.61
2023-03-10T05:14:22.007Z,59.02
2023-03-10T05:15:21.976Z,56.85
2023-03-10T05:16:22.075Z,58.21
2023-03-10T05:17:21.960Z,56.18
2023-03-10T05:18:21.950Z,55.35
2023-03-10T05:19:21.963Z,56.63
2023-03-10T05:20:21.930Z,58.05
2023-03-10T05:21:22.025Z,57.59
2023-03-10T05:22:21.912Z,56.42
2023-03-10T05:23:21.905Z,59.98
2023-03-10T05:24:21.919Z,57.62
2023-03-10T05:25:21.891Z,58.34
2023-03-10T05:26:21.888Z,58.08
2023-03-10T05:27:21.922Z,60.57
2023-03-10T05:28:21.867Z,58.37
2023-03-10T05:29:21.889Z,58.52
2023-03-10T05:30:21.850Z,57.89
2023-03-10T05:31:21.868Z,58.88
2023-03-10T05:32:21.881Z,57.24
2023-03-10T05:33:21.930Z,56.89
2023-03-10T05:34:21.860Z,58.88
2023-03-10T05:35:21.802Z,55.72
2023-03-10T05:36:21.800Z,61.19
2023-03-10T05:37:21.785Z,61.08
2023-03-10T05:38:21.779Z,64.41
2023-03-10T05:39:21.820Z,64.49
2023-03-10T05:40:21.766Z,62.15
2023-03-10T05:41:21.765Z,60.02
2023-03-10T05:42:21.756Z,60.84
2023-03-10T05:43:21.744Z,60.78
2023-03-10T05:44:21.742Z,59.99
2023-03-10T05:45:21.761Z,62.81
2023-03-10T05:46:21.758Z,61.05
2023-03-10T05:47:21.716Z,57.11
2023-03-10T05:48:21.724Z,60.79
2023-03-10T05:49:21.712Z,56.33
2023-03-10T05:50:21.720Z,61.24
2023-03-10T05:51:21.683Z,58.31
2023-03-10T05:52:21.668Z,59.60
2023-03-10T05:53:21.661Z,60.42
2023-03-10T05:54:21.656Z,61.33
2023-03-10T05:55:21.666Z,60.02
2023-03-10T05:56:21.637Z,59.25
2023-03-10T05:57:21.661Z,57.07
2023-03-10T05:58:21.618Z,60.96
2023-03-10T05:59:21.611Z,60.86
2023-03-10T06:00:21.632Z,60.56
2023-03-10T06:01:21.594Z,60.79
2023-03-10T06:02:21.617Z,55.84
2023-03-10T06:03:21.734Z,57.87
2023-03-10T06:04:22.622Z,55.39
2023-03-10T06:05:21.592Z,61.38
2023-03-10T06:06:21.559Z,59.22
2023-03-10T06:07:21.558Z,58.90
2023-03-10T06:08:21.559Z,56.05
2023-03-10T06:09:21.538Z,61.91
2023-03-10T06:10:21.550Z,58.40
2023-03-10T06:11:21.517Z,61.96
2023-03-10T06:12:21.506Z,59.19
2023-03-10T06:13:21.504Z,61.61
2023-03-10T06:14:21.495Z,60.46
2023-03-10T06:15:21.514Z,61.64
2023-03-10T06:16:21.552Z,60.70
2023-03-10T06:17:21.482Z,60.94
2023-03-10T06:18:21.473Z,61.58
2023-03-10T06:19:21.470Z,60.06
2023-03-10T06:20:21.488Z,62.55
2023-03-10T06:21:21.447Z,60.79
2023-03-10T06:22:21.431Z,59.90
2023-03-10T06:23:21.460Z,62.84
2023-03-10T06:24:21.420Z,62.55
2023-03-10T06:25:21.439Z,60.83
2023-03-10T06:26:21.396Z,61.29
2023-03-10T06:27:21.395Z,60.21
2023-03-10T06:28:21.389Z,61.72
2023-03-10T06:29:21.380Z,63.28
2023-03-10T06:30:21.402Z,61.62
2023-03-10T06:31:21.459Z,61.64
2023-03-10T06:32:21.401Z,62.17
2023-03-10T06:33:21.356Z,61.30
2023-03-10T06:34:21.359Z,63.53
2023-03-10T06:35:21.364Z,61.20
2023-03-10T06:36:21.353Z,60.32
2023-03-10T06:37:21.348Z,61.79
2023-03-10T06:38:21.311Z,61.38
2023-03-10T06:39:21.336Z,62.42
2023-03-10T06:40:21.326Z,62.30
2023-03-10T06:41:21.293Z,56.66
2023-03-10T06:42:21.284Z,60.94
2023-03-10T06:43:21.290Z,61.46
2023-03-10T06:44:21.274Z,62.49
2023-03-10T06:45:21.286Z,62.88
2023-03-10T06:46:21.295Z,64.81
2023-03-10T06:47:21.251Z,62.75
2023-03-10T06:48:21.240Z,59.61
2023-03-10T06:49:21.232Z,62.44
2023-03-10T06:50:21.256Z,57.23
2023-03-10T06:51:21.225Z,60.01
2023-03-10T06:52:21.207Z,61.67
2023-03-10T06:53:21.199Z,60.97
2023-03-10T06:54:21.186Z,60.04
2023-03-10T06:55:21.206Z,59.75
2023-03-10T06:56:21.173Z,60.07
2023-03-10T06:57:21.197Z,60.40
2023-03-10T06:58:22.157Z,60.45
2023-03-10T06:59:21.143Z,60.59
2023-03-10T07:00:21.173Z,59.97
2023-03-10T07:01:21.268Z,57.87
2023-03-10T07:02:21.129Z,58.10
2023-03-10T07:03:21.125Z,55.29
2023-03-10T07:04:21.150Z,61.23
2023-03-10T07:05:21.145Z,61.87
2023-03-10T07:06:21.090Z,60.51
2023-03-10T07:07:21.095Z,62.34
2023-03-10T07:08:21.085Z,61.86
2023-03-10T07:09:21.074Z,59.57
2023-03-10T07:10:21.086Z,57.28
2023-03-10T07:11:21.056Z,60.54
2023-03-10T07:12:21.056Z,54.02
2023-03-10T07:13:21.034Z,58.67
2023-03-10T07:14:21.027Z,60.92
2023-03-10T07:15:21.049Z,56.65
2023-03-10T07:16:21.051Z,58.07
2023-03-10T07:17:21.005Z,58.67
2023-03-10T07:18:21.000Z,58.02
2023-03-10T07:19:20.995Z,55.96
2023-03-10T07:20:21.002Z,60.31
2023-03-10T07:21:20.972Z,58.88
2023-03-10T07:22:20.965Z,57.44
2023-03-10T07:23:20.960Z,60.20
2023-03-10T07:24:20.945Z,59.25
2023-03-10T07:25:20.967Z,56.39
2023-03-10T07:26:20.941Z,60.70
2023-03-10T07:27:20.929Z,60.56
2023-03-10T07:28:20.916Z,62.28
2023-03-10T07:29:20.909Z,59.73
2023-03-10T07:30:20.931Z,57.88
2023-03-10T07:31:21.957Z,61.37
2023-03-10T07:32:20.902Z,60.42
2023-03-10T07:33:20.877Z,59.43
2023-03-10T07:34:20.870Z,60.81
2023-03-10T07:35:20.889Z,56.49
2023-03-10T07:36:20.910Z,57.86
2023-03-10T07:37:20.853Z,57.04
2023-03-10T07:38:20.856Z,56.04
2023-03-10T07:39:20.844Z,58.98
2023-03-10T07:40:20.857Z,59.12
2023-03-10T07:41:20.821Z,59.46
2023-03-10T07:42:20.821Z,53.77
2023-03-10T07:43:20.808Z,53.94
2023-03-10T07:44:20.827Z,57.16
2023-03-10T07:45:20.817Z,58.90
2023-03-10T07:46:20.856Z,58.80
2023-03-10T07:47:20.776Z,57.13
2023-03-10T07:48:20.769Z,57.15
2023-03-10T07:49:22.264Z,63.01
2023-03-10T07:50:21.801Z,60.31
2023-03-10T07:51:20.754Z,57.14
2023-03-10T07:52:20.748Z,58.50
2023-03-10T07:53:20.731Z,56.47
2023-03-10T07:54:20.723Z,59.26
2023-03-10T07:55:20.743Z,59.83
2023-03-10T07:56:20.706Z,54.42
2023-03-10T07:57:20.692Z,55.33
2023-03-10T07:58:20.692Z,54.97
2023-03-10T07:59:20.680Z,58.56
2023-03-10T08:00:20.701Z,58.83
2023-03-10T08:01:20.692Z,59.58
2023-03-10T08:02:20.683Z,57.85
2023-03-10T08:03:20.654Z,57.67
2023-03-10T08:04:20.763Z,60.18
2023-03-10T08:05:20.711Z,53.08
2023-03-10T08:06:20.632Z,51.65
2023-03-10T08:07:20.618Z,55.64
2023-03-10T08:08:20.609Z,55.56
2023-03-10T08:09:20.610Z,57.17
2023-03-10T08:10:20.623Z,56.44
2023-03-10T08:11:20.589Z,53.69
2023-03-10T08:12:20.577Z,59.00
2023-03-10T08:13:20.717Z,53.39
2023-03-10T08:14:21.143Z,58.55
2023-03-10T08:15:21.574Z,57.99
2023-03-10T08:16:20.622Z,58.63
2023-03-10T08:17:20.561Z,53.21
2023-03-10T08:18:20.535Z,57.84
2023-03-10T08:19:20.524Z,59.42
2023-03-10T08:20:20.540Z,54.94
2023-03-10T08:21:20.508Z,56.72
2023-03-10T08:22:22.552Z,55.84
2023-03-10T08:23:21.488Z,60.94
2023-03-10T08:24:20.496Z,57.16
2023-03-10T08:25:20.499Z,56.44
2023-03-10T08:26:20.477Z,56.48
2023-03-10T08:27:20.457Z,58.19
2023-03-10T08:28:20.451Z,54.21
2023-03-10T08:29:20.454Z,57.03
2023-03-10T08:30:20.477Z,55.42
2023-03-10T08:31:20.524Z,55.11
2023-03-10T08:32:20.456Z,57.11
2023-03-10T08:33:20.410Z,57.25
2023-03-10T08:34:20.399Z,51.51
2023-03-10T08:35:20.386Z,58.02
2023-03-10T08:36:20.477Z,59.31
2023-03-10T08:37:20.372Z,58.25
2023-03-10T08:38:20.363Z,58.31
2023-03-10T08:39:20.377Z,58.94
2023-03-10T08:40:20.352Z,60.06
2023-03-10T08:41:20.377Z,58.78
2023-03-10T08:42:20.336Z,58.82
2023-03-10T08:43:20.325Z,58.08
2023-03-10T08:44:20.322Z,56.26
2023-03-10T08:45:20.315Z,55.66
2023-03-10T08:46:20.380Z,59.58
2023-03-10T08:47:20.307Z,60.34
2023-03-10T08:48:20.287Z,59.59
2023-03-10T08:49:20.284Z,56.60
2023-03-10T08:50:20.274Z,56.36
2023-03-10T08:51:20.289Z,57.52
2023-03-10T08:52:20.259Z,55.79
2023-03-10T08:53:20.255Z,58.23
2023-03-10T08:54:20.246Z,58.13
2023-03-10T08:55:20.236Z,55.90
2023-03-10T08:56:20.255Z,59.83
2023-03-10T08:57:20.222Z,55.68
2023-03-10T08:58:20.218Z,58.21
2023-03-10T08:59:21.210Z,58.64
2023-03-10T09:00:20.198Z,56.15
2023-03-10T09:01:20.271Z,57.18
2023-03-10T09:02:20.304Z,57.17
2023-03-10T09:03:20.246Z,54.84
2023-03-10T09:04:20.176Z,57.36
2023-03-10T09:05:21.730Z,59.00
2023-03-10T09:06:21.179Z,55.81
2023-03-10T09:07:20.155Z,57.89
2023-03-10T09:08:20.138Z,57.46
2023-03-10T09:09:20.138Z,55.68
2023-03-10T09:10:20.124Z,59.81
2023-03-10T09:11:20.152Z,57.99
2023-03-10T09:12:20.118Z,60.14
2023-03-10T09:13:20.090Z,57.45
2023-03-10T09:14:20.086Z,58.49
2023-03-10T09:15:20.085Z,58.66
2023-03-10T09:16:20.148Z,58.82
2023-03-10T09:17:20.064Z,57.20
2023-03-10T09:18:20.068Z,56.00
2023-03-10T09:19:20.066Z,56.69
2023-03-10T09:20:20.039Z,58.07
2023-03-10T09:21:20.057Z,55.81
2023-03-10T09:22:20.033Z,58.59
2023-03-10T09:23:20.020Z,58.73
2023-03-10T09:24:20.029Z,60.46
2023-03-10T09:25:20.001Z,58.18
2023-03-10T09:26:20.015Z,58.32
2023-03-10T09:27:19.984Z,56.29
2023-03-10T09:28:19.993Z,58.62
2023-03-10T09:29:23.068Z,61.03
2023-03-10T09:30:20.962Z,57.51
2023-03-10T09:31:20.010Z,56.09
2023-03-10T09:32:20.098Z,56.02
2023-03-10T09:33:19.969Z,59.58
2023-03-10T09:34:19.934Z,57.98
2023-03-10T09:35:19.998Z,58.65
2023-03-10T09:36:19.956Z,59.94
2023-03-10T09:37:19.911Z,60.45
2023-03-10T09:38:19.910Z,60.21
2023-03-10T09:39:19.891Z,56.74
2023-03-10T09:40:19.879Z,55.38
2023-03-10T09:41:19.907Z,57.10
2023-03-10T09:42:29.178Z,57.20
2023-03-10T09:43:21.870Z,57.22
2023-03-10T09:44:19.857Z,56.79
2023-03-10T09:45:19.844Z,57.02
2023-03-10T09:46:19.886Z,58.17
2023-03-10T09:47:20.293Z,57.58
2023-03-10T09:48:20.828Z,58.52
2023-03-10T09:49:19.814Z,56.82
2023-03-10T09:50:19.816Z,55.04
2023-03-10T09:51:19.828Z,59.82
2023-03-10T09:52:19.792Z,57.92
2023-03-10T09:53:19.787Z,59.30
2023-03-10T09:54:19.777Z,60.64
2023-03-10T09:55:19.771Z,56.98
2023-03-10T09:56:19.790Z,53.52
2023-03-10T09:57:19.759Z,60.51
2023-03-10T09:58:19.749Z,52.15
2023-03-10T09:59:19.736Z,56.70
2023-03-10T10:00:19.730Z,58.99
2023-03-10T10:01:19.748Z,58.29
2023-03-10T10:02:19.720Z,56.68
2023-03-10T10:03:19.738Z,52.08
2023-03-10T10:04:19.766Z,59.09
2023-03-10T10:05:19.698Z,55.41
2023-03-10T10:06:19.716Z,54.22
2023-03-10T10:07:19.678Z,52.57
2023-03-10T10:08:19.694Z,57.06
2023-03-10T10:09:19.662Z,56.36
2023-03-10T10:10:19.651Z,57.55
2023-03-10T10:11:19.679Z,60.28
2023-03-10T10:12:19.667Z,57.87
2023-03-10T10:13:19.625Z,56.63
2023-03-10T10:14:29.330Z,56.38
2023-03-10T10:15:21.638Z,57.68
2023-03-10T10:16:33.503Z,57.72
2023-03-10T10:17:21.629Z,55.71
2023-03-10T10:18:22.087Z,55.00
2023-03-10T10:19:20.574Z,59.32
2023-03-10T10:20:19.569Z,59.12
2023-03-10T10:21:19.557Z,61.47
2023-03-10T10:22:19.582Z,57.95
2023-03-10T10:23:19.552Z,58.16
2023-03-10T10:24:19.533Z,61.14
2023-03-10T10:25:19.557Z,58.17
2023-03-10T10:26:19.532Z,55.80
2023-03-10T10:27:21.616Z,54.95
2023-03-10T10:28:20.507Z,54.89
2023-03-10T10:29:19.545Z,57.54
2023-03-10T10:30:20.001Z,59.86
2023-03-10T10:31:19.589Z,57.53
2023-03-10T10:32:19.579Z,57.42
2023-03-10T10:33:19.464Z,61.22
2023-03-10T10:34:19.890Z,54.96
2023-03-10T10:35:20.448Z,59.77
2023-03-10T10:36:19.484Z,53.19
2023-03-10T10:37:19.469Z,55.74
2023-03-10T10:38:19.426Z,58.53
2023-03-10T10:39:19.419Z,57.48
2023-03-10T10:40:19.418Z,56.06
2023-03-10T10:41:19.408Z,57.03
2023-03-10T10:42:19.424Z,56.58
2023-03-10T10:43:19.395Z,57.84
2023-03-10T10:44:19.385Z,57.73
2023-03-10T10:45:19.368Z,59.41
2023-03-10T10:46:19.409Z,59.90
2023-03-10T10:47:19.377Z,56.52
2023-03-10T10:48:19.347Z,56.91
2023-03-10T10:49:19.339Z,56.03
2023-03-10T10:50:19.340Z,54.30
2023-03-10T10:51:19.328Z,56.22
2023-03-10T10:52:19.350Z,57.78
2023-03-10T10:53:19.326Z,55.03
2023-03-10T10:54:19.310Z,56.35
2023-03-10T10:55:19.295Z,56.17
2023-03-10T10:56:19.300Z,58.14
2023-03-10T10:57:19.316Z,55.87
2023-03-10T10:58:19.268Z,56.29
2023-03-10T10:59:19.274Z,54.67
2023-03-10T11:00:19.290Z,55.26
2023-03-10T11:01:19.270Z,56.74
2023-03-10T11:02:19.315Z,55.94
2023-03-10T11:03:19.236Z,57.54
2023-03-10T11:04:19.229Z,53.61
2023-03-10T11:05:19.219Z,55.26
2023-03-10T11:06:19.209Z,55.37
2023-03-10T11:07:19.221Z,55.41
2023-03-10T11:08:19.211Z,51.87
2023-03-10T11:09:19.214Z,57.37
2023-03-10T11:10:19.182Z,56.55
2023-03-10T11:11:19.181Z,54.49
2023-03-10T11:12:19.190Z,51.62
2023-03-10T11:13:19.148Z,53.20
2023-03-10T11:14:19.143Z,57.13
2023-03-10T11:15:19.139Z,56.40
2023-03-10T11:16:19.171Z,57.68
2023-03-10T11:17:19.151Z,56.70
2023-03-10T11:18:19.113Z,56.34
2023-03-10T11:19:19.122Z,57.44
2023-03-10T11:20:19.088Z,56.68
2023-03-10T11:21:19.092Z,55.42
2023-03-10T11:22:19.078Z,55.41
2023-03-10T11:23:19.096Z,57.07
2023-03-10T11:24:19.067Z,54.58
2023-03-10T11:25:19.061Z,54.68
2023-03-10T11:26:19.066Z,55.35
2023-03-10T11:27:19.049Z,59.55
2023-03-10T11:28:19.081Z,57.53
2023-03-10T11:29:19.046Z,56.81
2023-03-10T11:30:19.106Z,59.45
2023-03-10T11:31:19.072Z,56.33
2023-03-10T11:32:19.038Z,55.54
2023-03-10T11:33:19.018Z,56.67
2023-03-10T11:34:18.983Z,57.59
2023-03-10T11:35:18.980Z,56.50
2023-03-10T11:36:19.023Z,57.43
2023-03-10T11:37:18.970Z,57.28
2023-03-10T11:38:19.039Z,54.34
2023-03-10T11:39:18.953Z,55.71
2023-03-10T11:40:18.961Z,63.63
2023-03-10T11:41:18.941Z,69.65
2023-03-10T11:42:18.932Z,70.51
2023-03-10T11:43:18.938Z,73.83
2023-03-10T11:44:18.917Z,73.08
2023-03-10T11:45:18.900Z,68.24
2023-03-10T11:46:18.922Z,61.00
2023-03-10T11:47:18.917Z,61.33
2023-03-10T11:48:18.912Z,60.58
2023-03-10T11:49:18.879Z,57.91
2023-03-10T11:50:18.896Z,54.97
2023-03-10T11:51:18.847Z,56.18
2023-03-10T11:52:18.868Z,56.31
2023-03-10T11:53:18.858Z,61.41
2023-03-10T11:54:18.821Z,59.34
2023-03-10T11:55:18.815Z,57.57
2023-03-10T11:56:18.819Z,59.06
2023-03-10T11:57:18.802Z,57.44
2023-03-10T11:58:18.819Z,59.80
2023-03-10T11:59:18.809Z,58.81
2023-03-10T12:00:18.789Z,58.49
2023-03-10T12:01:18.772Z,58.37
2023-03-10T12:02:18.764Z,56.28
2023-03-10T12:03:18.799Z,57.89
2023-03-10T12:04:18.764Z,55.99
2023-03-10T12:05:18.774Z,58.40
2023-03-10T12:06:18.743Z,58.35
2023-03-10T12:07:18.728Z,56.98
2023-03-10T12:08:18.740Z,58.50
2023-03-10T12:09:18.709Z,54.36
2023-03-10T12:10:18.701Z,57.71
2023-03-10T12:11:18.696Z,57.44
2023-03-10T12:12:18.681Z,57.70
2023-03-10T12:13:19.747Z,55.55
2023-03-10T12:14:18.677Z,57.87
2023-03-10T12:15:18.663Z,60.11
2023-03-10T12:16:18.701Z,57.72
2023-03-10T12:17:18.642Z,57.80
2023-03-10T12:18:18.680Z,56.02
2023-03-10T12:19:18.635Z,56.05
2023-03-10T12:20:18.627Z,58.32
2023-03-10T12:21:18.613Z,57.84
2023-03-10T12:22:18.613Z,57.10
2023-03-10T12:23:18.608Z,54.95
2023-03-10T12:24:18.614Z,56.29
2023-03-10T12:25:18.588Z,56.84
2023-03-10T12:26:18.570Z,57.25
2023-03-10T12:27:19.574Z,54.31
2023-03-10T12:28:18.567Z,57.68
2023-03-10T12:29:18.613Z,58.57
2023-03-10T12:30:18.545Z,59.18
2023-03-10T12:31:18.593Z,57.10
2023-03-10T12:32:18.552Z,59.86
2023-03-10T12:33:18.523Z,54.32
2023-03-10T12:34:18.544Z,55.85
2023-03-10T12:35:18.507Z,55.02
2023-03-10T12:36:18.564Z,57.12
2023-03-10T12:37:18.490Z,57.68
2023-03-10T12:38:19.438Z,57.92
2023-03-10T12:39:18.499Z,56.40
2023-03-10T12:40:18.474Z,57.97
2023-03-10T12:41:18.461Z,57.25
2023-03-10T12:42:18.457Z,57.48
2023-03-10T12:43:18.448Z,57.53
2023-03-10T12:44:18.461Z,57.88
2023-03-10T12:45:18.431Z,57.59
2023-03-10T12:46:18.453Z,57.78
2023-03-10T12:47:18.420Z,60.38
2023-03-10T12:48:18.402Z,58.10
2023-03-10T12:49:18.428Z,59.02
2023-03-10T12:50:18.390Z,57.18
2023-03-10T12:51:18.603Z,55.85
2023-03-10T12:52:19.363Z,57.57